sensor_id;sensor_type;location;lat;lon;timestamp;P1;durP1;ratioP1;P2;durP2;ratioP2
24995;SDS011;13016;52.162;21.034;2023-04-16T00:01:19;4.10;;;3.20;;
24995;SDS011;13016;52.162;21.034;2023-04-16T00:07:19;3.50;;;3.10;;
24995;SDS011;13016;52.162;21.034;2023-04-16T00:13:19;4.40;;;3.20;;
24995;SDS011;13016;52.162;21.034;2023-04-16T00:19:20;4.20;;;3.10;;
24995;SDS011;13016;52.162;21.034;2023-04-16T00:25:20;6.20;;;3.20;;
24995;SDS011;13016;52.162;21.034;2023-04-16T00:31:30;3.80;;;3.00;;
24995;SDS011;13016;52.162;21.034;2023-04-16T00:37:32;6.90;;;3.50;;
24995;SDS011;13016;52.162;21.034;2023-04-16T00:43:32;5.40;;;3.40;;
24995;SDS011;13016;52.162;21.034;2023-04-16T00:49:33;4.20;;;3.30;;
24995;SDS011;13016;52.162;21.034;2023-04-16T00:55:35;4.60;;;3.30;;
24995;SDS011;13016;52.162;21.034;2023-04-16T01:01:35;5.40;;;3.30;;
24995;SDS011;13016;52.162;21.034;2023-04-16T01:07:36;3.70;;;2.80;;
24995;SDS011;13016;52.162;21.034;2023-04-16T01:13:36;5.90;;;3.60;;
24995;SDS011;13016;52.162;21.034;2023-04-16T01:19:36;3.80;;;3.10;;
24995;SDS011;13016;52.162;21.034;2023-04-16T01:25:37;3.60;;;2.80;;
24995;SDS011;13016;52.162;21.034;2023-04-16T01:31:38;3.70;;;3.20;;
24995;SDS011;13016;52.162;21.034;2023-04-16T01:37:38;5.90;;;3.30;;
24995;SDS011;13016;52.162;21.034;2023-04-16T01:43:38;4.40;;;3.10;;
24995;SDS011;13016;52.162;21.034;2023-04-16T01:49:39;5.50;;;3.30;;
24995;SDS011;13016;52.162;21.034;2023-04-16T01:55:39;4.30;;;3.40;;
24995;SDS011;13016;52.162;21.034;2023-04-16T02:01:39;4.40;;;3.30;;
24995;SDS011;13016;52.162;21.034;2023-04-16T02:07:41;3.40;;;2.70;;
24995;SDS011;13016;52.162;21.034;2023-04-16T02:13:41;5.30;;;3.50;;
24995;SDS011;13016;52.162;21.034;2023-04-16T02:19:41;4.60;;;3.30;;
24995;SDS011;13016;52.162;21.034;2023-04-16T02:25:43;4.20;;;3.50;;
24995;SDS011;13016;52.162;21.034;2023-04-16T02:31:45;4.50;;;3.80;;
24995;SDS011;13016;52.162;21.034;2023-04-16T02:37:45;7.50;;;4.40;;
24995;SDS011;13016;52.162;21.034;2023-04-16T02:43:45;5.10;;;4.30;;
24995;SDS011;13016;52.162;21.034;2023-04-16T02:49:46;4.90;;;4.00;;
24995;SDS011;13016;52.162;21.034;2023-04-16T02:55:53;6.40;;;4.50;;
24995;SDS011;13016;52.162;21.034;2023-04-16T03:01:54;5.80;;;4.40;;
24995;SDS011;13016;52.162;21.034;2023-04-16T03:07:54;6.00;;;4.90;;
24995;SDS011;13016;52.162;21.034;2023-04-16T03:13:54;6.90;;;4.80;;
24995;SDS011;13016;52.162;21.034;2023-04-16T03:19:55;6.70;;;5.10;;
24995;SDS011;13016;52.162;21.034;2023-04-16T03:25:55;5.90;;;5.20;;
24995;SDS011;13016;52.162;21.034;2023-04-16T03:31:56;7.60;;;5.40;;
24995;SDS011;13016;52.162;21.034;2023-04-16T03:37:56;8.50;;;5.40;;
24995;SDS011;13016;52.162;21.034;2023-04-16T03:43:57;9.10;;;4.90;;
24995;SDS011;13016;52.162;21.034;2023-04-16T03:50:05;7.60;;;5.90;;
24995;SDS011;13016;52.162;21.034;2023-04-16T03:56:06;8.00;;;5.60;;
24995;SDS011;13016;52.162;21.034;2023-04-16T04:02:06;10.20;;;5.70;;
24995;SDS011;13016;52.162;21.034;2023-04-16T04:08:07;8.80;;;5.70;;
24995;SDS011;13016;52.162;21.034;2023-04-16T04:14:08;7.80;;;5.90;;
24995;SDS011;13016;52.162;21.034;2023-04-16T04:20:08;8.70;;;5.50;;
24995;SDS011;13016;52.162;21.034;2023-04-16T04:26:09;9.20;;;5.80;;
24995;SDS011;13016;52.162;21.034;2023-04-16T04:32:10;10.00;;;5.90;;
24995;SDS011;13016;52.162;21.034;2023-04-16T04:38:10;8.00;;;6.10;;
24995;SDS011;13016;52.162;21.034;2023-04-16T04:44:10;10.80;;;6.40;;
24995;SDS011;13016;52.162;21.034;2023-04-16T04:50:11;7.20;;;5.70;;
24995;SDS011;13016;52.162;21.034;2023-04-16T04:56:11;8.70;;;5.90;;
24995;SDS011;13016;52.162;21.034;2023-04-16T05:02:11;7.50;;;5.80;;
24995;SDS011;13016;52.162;21.034;2023-04-16T05:08:12;8.00;;;6.00;;
24995;SDS011;13016;52.162;21.034;2023-04-16T05:14:12;7.00;;;5.80;;
24995;SDS011;13016;52.162;21.034;2023-04-16T05:20:13;8.50;;;6.60;;
24995;SDS011;13016;52.162;21.034;2023-04-16T05:26:14;10.40;;;7.30;;
24995;SDS011;13016;52.162;21.034;2023-04-16T05:32:15;8.70;;;6.60;;
24995;SDS011;13016;52.162;21.034;2023-04-16T05:38:15;8.90;;;7.00;;
24995;SDS011;13016;52.162;21.034;2023-04-16T05:44:16;8.40;;;6.70;;
24995;SDS011;13016;52.162;21.034;2023-04-16T05:50:16;8.50;;;6.70;;
24995;SDS011;13016;52.162;21.034;2023-04-16T05:56:16;9.20;;;7.00;;
24995;SDS011;13016;52.162;21.034;2023-04-16T06:02:17;9.90;;;6.70;;
24995;SDS011;13016;52.162;21.034;2023-04-16T06:08:17;8.60;;;6.50;;
24995;SDS011;13016;52.162;21.034;2023-04-16T06:14:18;9.40;;;6.60;;
24995;SDS011;13016;52.162;21.034;2023-04-16T06:20:18;8.00;;;6.50;;
24995;SDS011;13016;52.162;21.034;2023-04-16T06:26:24;8.90;;;6.00;;
24995;SDS011;13016;52.162;21.034;2023-04-16T06:32:24;7.40;;;6.00;;
24995;SDS011;13016;52.162;21.034;2023-04-16T06:38:24;6.70;;;5.80;;
24995;SDS011;13016;52.162;21.034;2023-04-16T06:44:27;7.80;;;5.90;;
24995;SDS011;13016;52.162;21.034;2023-04-16T06:50:28;9.30;;;5.90;;
24995;SDS011;13016;52.162;21.034;2023-04-16T06:56:29;6.70;;;5.60;;
24995;SDS011;13016;52.162;21.034;2023-04-16T07:02:29;8.00;;;6.00;;
24995;SDS011;13016;52.162;21.034;2023-04-16T07:08:32;8.00;;;5.60;;
24995;SDS011;13016;52.162;21.034;2023-04-16T07:14:33;9.10;;;5.70;;
24995;SDS011;13016;52.162;21.034;2023-04-16T07:20:33;9.30;;;5.70;;
24995;SDS011;13016;52.162;21.034;2023-04-16T07:26:33;7.70;;;6.50;;
24995;SDS011;13016;52.162;21.034;2023-04-16T07:32:34;6.80;;;6.10;;
24995;SDS011;13016;52.162;21.034;2023-04-16T07:38:34;7.00;;;5.90;;
24995;SDS011;13016;52.162;21.034;2023-04-16T07:44:35;7.50;;;5.70;;
24995;SDS011;13016;52.162;21.034;2023-04-16T07:50:35;9.90;;;6.20;;
24995;SDS011;13016;52.162;21.034;2023-04-16T07:56:36;6.60;;;5.90;;
24995;SDS011;13016;52.162;21.034;2023-04-16T08:02:36;6.50;;;5.80;;
24995;SDS011;13016;52.162;21.034;2023-04-16T08:08:37;10.30;;;5.40;;
24995;SDS011;13016;52.162;21.034;2023-04-16T08:14:37;7.10;;;5.70;;
24995;SDS011;13016;52.162;21.034;2023-04-16T08:20:38;5.90;;;5.10;;
24995;SDS011;13016;52.162;21.034;2023-04-16T08:26:38;7.90;;;6.00;;
24995;SDS011;13016;52.162;21.034;2023-04-16T08:32:38;6.90;;;5.40;;
24995;SDS011;13016;52.162;21.034;2023-04-16T08:38:39;6.60;;;4.90;;
24995;SDS011;13016;52.162;21.034;2023-04-16T08:51:02;6.90;;;5.50;;
24995;SDS011;13016;52.162;21.034;2023-04-16T08:57:13;7.60;;;5.70;;
24995;SDS011;13016;52.162;21.034;2023-04-16T09:03:18;7.60;;;5.20;;
24995;SDS011;13016;52.162;21.034;2023-04-16T09:09:18;5.30;;;4.80;;
24995;SDS011;13016;52.162;21.034;2023-04-16T09:15:20;6.30;;;5.30;;
24995;SDS011;13016;52.162;21.034;2023-04-16T09:21:24;8.60;;;5.30;;
24995;SDS011;13016;52.162;21.034;2023-04-16T09:27:25;6.00;;;5.40;;
24995;SDS011;13016;52.162;21.034;2023-04-16T09:33:25;5.90;;;5.10;;
24995;SDS011;13016;52.162;21.034;2023-04-16T09:39:27;5.90;;;5.00;;
24995;SDS011;13016;52.162;21.034;2023-04-16T09:45:31;6.00;;;5.20;;
24995;SDS011;13016;52.162;21.034;2023-04-16T09:51:35;6.50;;;5.90;;
24995;SDS011;13016;52.162;21.034;2023-04-16T09:57:36;6.40;;;5.60;;
24995;SDS011;13016;52.162;21.034;2023-04-16T10:03:38;7.00;;;5.60;;
24995;SDS011;13016;52.162;21.034;2023-04-16T10:09:39;5.70;;;5.10;;
24995;SDS011;13016;52.162;21.034;2023-04-16T10:15:39;6.60;;;5.80;;
24995;SDS011;13016;52.162;21.034;2023-04-16T10:21:40;5.80;;;5.20;;
24995;SDS011;13016;52.162;21.034;2023-04-16T10:27:41;6.60;;;5.60;;
24995;SDS011;13016;52.162;21.034;2023-04-16T10:33:43;5.80;;;5.20;;
24995;SDS011;13016;52.162;21.034;2023-04-16T10:39:44;6.00;;;5.10;;
24995;SDS011;13016;52.162;21.034;2023-04-16T10:45:46;8.20;;;5.50;;
24995;SDS011;13016;52.162;21.034;2023-04-16T10:51:56;5.80;;;5.00;;
24995;SDS011;13016;52.162;21.034;2023-04-16T10:57:58;5.10;;;4.60;;
24995;SDS011;13016;52.162;21.034;2023-04-16T11:04:32;7.40;;;5.30;;
24995;SDS011;13016;52.162;21.034;2023-04-16T11:10:37;5.40;;;4.70;;
24995;SDS011;13016;52.162;21.034;2023-04-16T11:16:39;6.70;;;5.60;;
24995;SDS011;13016;52.162;21.034;2023-04-16T11:22:39;6.20;;;5.20;;
24995;SDS011;13016;52.162;21.034;2023-04-16T11:28:41;5.60;;;5.10;;
24995;SDS011;13016;52.162;21.034;2023-04-16T11:34:42;6.60;;;5.30;;
24995;SDS011;13016;52.162;21.034;2023-04-16T11:40:43;8.20;;;5.40;;
24995;SDS011;13016;52.162;21.034;2023-04-16T11:46:43;5.90;;;5.20;;
24995;SDS011;13016;52.162;21.034;2023-04-16T11:52:43;6.30;;;5.00;;
24995;SDS011;13016;52.162;21.034;2023-04-16T11:58:44;6.00;;;5.20;;
24995;SDS011;13016;52.162;21.034;2023-04-16T12:05:05;6.70;;;5.20;;
24995;SDS011;13016;52.162;21.034;2023-04-16T12:11:37;5.60;;;5.10;;
24995;SDS011;13016;52.162;21.034;2023-04-16T12:17:40;5.70;;;5.10;;
24995;SDS011;13016;52.162;21.034;2023-04-16T12:24:06;5.00;;;4.50;;
24995;SDS011;13016;52.162;21.034;2023-04-16T12:30:08;5.10;;;4.30;;
24995;SDS011;13016;52.162;21.034;2023-04-16T12:36:18;5.80;;;4.90;;
24995;SDS011;13016;52.162;21.034;2023-04-16T12:42:20;5.60;;;4.70;;
24995;SDS011;13016;52.162;21.034;2023-04-16T12:48:21;5.00;;;4.50;;
24995;SDS011;13016;52.162;21.034;2023-04-16T12:54:22;5.30;;;4.80;;
24995;SDS011;13016;52.162;21.034;2023-04-16T13:00:22;5.60;;;4.90;;
24995;SDS011;13016;52.162;21.034;2023-04-16T13:06:22;6.90;;;4.80;;
24995;SDS011;13016;52.162;21.034;2023-04-16T13:12:40;5.40;;;4.90;;
24995;SDS011;13016;52.162;21.034;2023-04-16T13:18:41;5.30;;;4.80;;
24995;SDS011;13016;52.162;21.034;2023-04-16T13:24:48;4.80;;;4.30;;
24995;SDS011;13016;52.162;21.034;2023-04-16T13:30:49;5.10;;;4.50;;
24995;SDS011;13016;52.162;21.034;2023-04-16T13:36:49;4.70;;;4.30;;
24995;SDS011;13016;52.162;21.034;2023-04-16T13:42:49;4.50;;;4.00;;
24995;SDS011;13016;52.162;21.034;2023-04-16T13:48:50;4.90;;;4.20;;
24995;SDS011;13016;52.162;21.034;2023-04-16T13:54:54;5.00;;;4.40;;
24995;SDS011;13016;52.162;21.034;2023-04-16T14:01:09;5.30;;;4.60;;
24995;SDS011;13016;52.162;21.034;2023-04-16T14:07:09;5.60;;;4.60;;
24995;SDS011;13016;52.162;21.034;2023-04-16T14:13:30;6.20;;;4.80;;
24995;SDS011;13016;52.162;21.034;2023-04-16T14:19:30;6.90;;;5.50;;
24995;SDS011;13016;52.162;21.034;2023-04-16T14:25:30;5.70;;;5.00;;
24995;SDS011;13016;52.162;21.034;2023-04-16T14:31:31;5.50;;;4.90;;
24995;SDS011;13016;52.162;21.034;2023-04-16T14:37:31;6.80;;;5.20;;
24995;SDS011;13016;52.162;21.034;2023-04-16T14:43:33;6.80;;;5.00;;
24995;SDS011;13016;52.162;21.034;2023-04-16T14:49:33;6.90;;;5.30;;
24995;SDS011;13016;52.162;21.034;2023-04-16T14:55:34;5.90;;;5.30;;
24995;SDS011;13016;52.162;21.034;2023-04-16T15:01:35;5.70;;;5.10;;
24995;SDS011;13016;52.162;21.034;2023-04-16T15:07:37;7.00;;;5.90;;
24995;SDS011;13016;52.162;21.034;2023-04-16T15:13:37;6.40;;;5.20;;
24995;SDS011;13016;52.162;21.034;2023-04-16T15:19:38;7.70;;;5.80;;
24995;SDS011;13016;52.162;21.034;2023-04-16T15:25:38;6.30;;;5.70;;
24995;SDS011;13016;52.162;21.034;2023-04-16T15:31:39;8.70;;;6.60;;
24995;SDS011;13016;52.162;21.034;2023-04-16T15:37:42;9.60;;;5.90;;
24995;SDS011;13016;52.162;21.034;2023-04-16T15:43:44;6.50;;;5.90;;
24995;SDS011;13016;52.162;21.034;2023-04-16T15:49:44;9.00;;;6.40;;
24995;SDS011;13016;52.162;21.034;2023-04-16T15:55:44;9.00;;;6.60;;
24995;SDS011;13016;52.162;21.034;2023-04-16T16:01:45;7.70;;;6.20;;
24995;SDS011;13016;52.162;21.034;2023-04-16T16:07:46;6.90;;;5.90;;
24995;SDS011;13016;52.162;21.034;2023-04-16T16:13:46;9.70;;;7.30;;
24995;SDS011;13016;52.162;21.034;2023-04-16T16:19:49;8.20;;;6.90;;
24995;SDS011;13016;52.162;21.034;2023-04-16T16:25:51;9.20;;;6.50;;
24995;SDS011;13016;52.162;21.034;2023-04-16T16:31:51;8.90;;;7.00;;
24995;SDS011;13016;52.162;21.034;2023-04-16T16:37:54;7.00;;;6.30;;
24995;SDS011;13016;52.162;21.034;2023-04-16T16:43:54;7.40;;;6.40;;
24995;SDS011;13016;52.162;21.034;2023-04-16T16:49:54;9.80;;;6.50;;
24995;SDS011;13016;52.162;21.034;2023-04-16T16:55:55;8.70;;;6.60;;
24995;SDS011;13016;52.162;21.034;2023-04-16T17:01:55;7.90;;;6.90;;
24995;SDS011;13016;52.162;21.034;2023-04-16T17:13:57;7.80;;;6.60;;
24995;SDS011;13016;52.162;21.034;2023-04-16T17:20:00;9.60;;;7.10;;
24995;SDS011;13016;52.162;21.034;2023-04-16T17:26:01;7.40;;;6.50;;
24995;SDS011;13016;52.162;21.034;2023-04-16T17:32:02;8.90;;;7.30;;
24995;SDS011;13016;52.162;21.034;2023-04-16T17:38:03;8.90;;;7.10;;
24995;SDS011;13016;52.162;21.034;2023-04-16T17:50:05;8.90;;;8.00;;
24995;SDS011;13016;52.162;21.034;2023-04-16T17:56:10;11.80;;;7.40;;
24995;SDS011;13016;52.162;21.034;2023-04-16T18:02:16;9.30;;;7.70;;
24995;SDS011;13016;52.162;21.034;2023-04-16T18:08:17;9.00;;;7.00;;
24995;SDS011;13016;52.162;21.034;2023-04-16T18:14:17;10.10;;;8.10;;
24995;SDS011;13016;52.162;21.034;2023-04-16T18:20:18;9.90;;;7.70;;
24995;SDS011;13016;52.162;21.034;2023-04-16T18:26:18;10.80;;;8.30;;
24995;SDS011;13016;52.162;21.034;2023-04-16T18:32:19;10.20;;;7.90;;
24995;SDS011;13016;52.162;21.034;2023-04-16T18:38:20;9.10;;;8.10;;
24995;SDS011;13016;52.162;21.034;2023-04-16T18:44:20;13.80;;;9.00;;
24995;SDS011;13016;52.162;21.034;2023-04-16T18:50:21;11.10;;;8.80;;
24995;SDS011;13016;52.162;21.034;2023-04-16T18:56:24;12.00;;;8.80;;
24995;SDS011;13016;52.162;21.034;2023-04-16T19:02:27;14.60;;;9.60;;
24995;SDS011;13016;52.162;21.034;2023-04-16T19:08:29;12.90;;;9.00;;
24995;SDS011;13016;52.162;21.034;2023-04-16T19:14:49;10.80;;;8.50;;
24995;SDS011;13016;52.162;21.034;2023-04-16T19:27:28;12.10;;;9.60;;
24995;SDS011;13016;52.162;21.034;2023-04-16T19:33:29;11.70;;;9.40;;
24995;SDS011;13016;52.162;21.034;2023-04-16T19:39:30;12.90;;;10.30;;
24995;SDS011;13016;52.162;21.034;2023-04-16T19:45:30;14.40;;;9.70;;
24995;SDS011;13016;52.162;21.034;2023-04-16T19:51:33;16.20;;;10.80;;
24995;SDS011;13016;52.162;21.034;2023-04-16T19:57:33;13.40;;;10.80;;
24995;SDS011;13016;52.162;21.034;2023-04-16T20:03:34;14.80;;;10.90;;
24995;SDS011;13016;52.162;21.034;2023-04-16T20:09:34;16.10;;;11.50;;
24995;SDS011;13016;52.162;21.034;2023-04-16T20:15:34;14.40;;;11.20;;
24995;SDS011;13016;52.162;21.034;2023-04-16T20:21:35;15.10;;;11.40;;
24995;SDS011;13016;52.162;21.034;2023-04-16T20:27:35;15.90;;;11.70;;
24995;SDS011;13016;52.162;21.034;2023-04-16T20:33:35;15.80;;;11.50;;
24995;SDS011;13016;52.162;21.034;2023-04-16T20:39:36;18.60;;;12.10;;
24995;SDS011;13016;52.162;21.034;2023-04-16T20:45:38;16.10;;;11.40;;
24995;SDS011;13016;52.162;21.034;2023-04-16T20:51:39;17.50;;;11.30;;
24995;SDS011;13016;52.162;21.034;2023-04-16T20:57:39;14.80;;;11.70;;
24995;SDS011;13016;52.162;21.034;2023-04-16T21:03:39;15.50;;;10.80;;
24995;SDS011;13016;52.162;21.034;2023-04-16T21:09:40;14.30;;;11.30;;
24995;SDS011;13016;52.162;21.034;2023-04-16T21:15:40;16.80;;;11.90;;
24995;SDS011;13016;52.162;21.034;2023-04-16T21:21:42;16.70;;;12.30;;
24995;SDS011;13016;52.162;21.034;2023-04-16T21:27:43;17.00;;;12.10;;
24995;SDS011;13016;52.162;21.034;2023-04-16T21:33:52;16.00;;;12.00;;
24995;SDS011;13016;52.162;21.034;2023-04-16T21:39:54;18.00;;;12.70;;
24995;SDS011;13016;52.162;21.034;2023-04-16T21:45:55;16.80;;;12.90;;
24995;SDS011;13016;52.162;21.034;2023-04-16T21:51:55;16.20;;;12.00;;
24995;SDS011;13016;52.162;21.034;2023-04-16T21:57:55;15.90;;;12.40;;
24995;SDS011;13016;52.162;21.034;2023-04-16T22:03:58;17.50;;;12.20;;
24995;SDS011;13016;52.162;21.034;2023-04-16T22:09:59;16.90;;;12.20;;
24995;SDS011;13016;52.162;21.034;2023-04-16T22:15:59;16.80;;;12.60;;
24995;SDS011;13016;52.162;21.034;2023-04-16T22:21:59;18.30;;;11.40;;
24995;SDS011;13016;52.162;21.034;2023-04-16T22:28:00;17.60;;;12.30;;
24995;SDS011;13016;52.162;21.034;2023-04-16T22:34:00;15.60;;;12.40;;
24995;SDS011;13016;52.162;21.034;2023-04-16T22:40:01;16.00;;;11.40;;
24995;SDS011;13016;52.162;21.034;2023-04-16T22:46:09;15.70;;;11.70;;
24995;SDS011;13016;52.162;21.034;2023-04-16T22:52:12;16.90;;;12.20;;
24995;SDS011;13016;52.162;21.034;2023-04-16T22:58:14;16.40;;;12.00;;
24995;SDS011;13016;52.162;21.034;2023-04-16T23:04:15;17.50;;;12.20;;
24995;SDS011;13016;52.162;21.034;2023-04-16T23:10:15;15.80;;;11.90;;
24995;SDS011;13016;52.162;21.034;2023-04-16T23:16:15;20.20;;;12.00;;
24995;SDS011;13016;52.162;21.034;2023-04-16T23:22:16;15.10;;;11.60;;
24995;SDS011;13016;52.162;21.034;2023-04-16T23:28:16;17.50;;;11.70;;
24995;SDS011;13016;52.162;21.034;2023-04-16T23:34:16;15.10;;;11.70;;
24995;SDS011;13016;52.162;21.034;2023-04-16T23:40:17;17.60;;;11.90;;
24995;SDS011;13016;52.162;21.034;2023-04-16T23:46:17;16.70;;;11.60;;
24995;SDS011;13016;52.162;21.034;2023-04-16T23:52:17;17.30;;;12.20;;
24995;SDS011;13016;52.162;21.034;2023-04-16T23:58:18;17.10;;;12.10;;
